Time,TemperatureF,DewpointF,PressureIn,WindDirection,WindDirectionDegrees,WindSpeedMPH,WindSpeedGustMPH,Humidity,HourlyPrecipIn,Conditions,Clouds,dailyrainin,SolarRadiationWatts/m^2,SoftwareType,DateUTC
2013-11-28 00:02:00,20.0,4.0,-100.00,SW,233,9.0,33.0,50,0.00,,,0.24,0.000000,,2013-11-28 05:02:00,
2013-11-28 00:12:00,20.0,4.0,-100.00,SW,233,9.0,33.0,50,0.00,,,0.24,0.000000,,2013-11-28 05:12:00,
2013-11-28 00:43:00,20.0,6.0,-100.00,WNW,295,8.0,34.0,55,0.00,,,0.18,0.000000,,2013-11-28 05:43:00,
2013-11-28 00:53:00,20.0,6.0,-100.00,WNW,295,8.0,34.0,55,0.00,,,0.18,0.000000,,2013-11-28 05:53:00,
2013-11-28 01:03:00,20.0,6.0,-100.00,WNW,295,8.0,34.0,55,0.00,,,0.18,0.000000,,2013-11-28 06:03:00,
2013-11-28 01:12:00,20.0,6.0,-100.00,WNW,295,8.0,34.0,55,0.00,,,0.18,0.000000,,2013-11-28 06:12:00,
2013-11-28 01:42:00,20.0,7.0,-100.00,WSW,249,8.0,25.0,56,0.00,,,-99.99,0.000000,,2013-11-28 06:42:00,
2013-11-28 01:52:00,20.0,7.0,-100.00,WSW,249,8.0,25.0,56,0.00,,,-99.99,0.000000,,2013-11-28 06:52:00,
2013-11-28 02:01:00,20.0,7.0,-100.00,WSW,249,8.0,25.0,56,0.00,,,-99.99,0.000000,,2013-11-28 07:01:00,
2013-11-28 02:11:00,20.0,7.0,-100.00,WSW,249,8.0,25.0,56,0.00,,,-99.99,0.000000,,2013-11-28 07:11:00,
2013-11-28 02:42:00,20.0,7.0,-100.00,WNW,287,13.0,30.0,57,0.00,,,0.07,0.000000,,2013-11-28 07:42:00,
2013-11-28 02:52:00,20.0,7.0,-100.00,WNW,287,13.0,30.0,57,0.00,,,0.07,0.000000,,2013-11-28 07:52:00,
2013-11-28 03:02:00,20.0,7.0,-100.00,WNW,287,13.0,30.0,57,0.00,,,0.07,0.000000,,2013-11-28 08:02:00,
2013-11-28 03:11:00,20.0,7.0,-100.00,WNW,287,13.0,30.0,57,0.00,,,0.07,0.000000,,2013-11-28 08:11:00,
2013-11-28 03:42:00,20.0,7.0,-100.00,WNW,283,8.0,20.0,56,0.00,,,-99.99,0.000000,,2013-11-28 08:42:00,
2013-11-28 03:53:00,20.0,7.0,-100.00,WNW,283,8.0,20.0,56,0.00,,,-99.99,0.000000,,2013-11-28 08:53:00,
2013-11-28 04:02:00,20.0,7.0,-100.00,WNW,283,8.0,20.0,56,0.00,,,-99.99,0.000000,,2013-11-28 09:02:00,
2013-11-28 04:11:00,20.0,7.0,-100.00,WNW,283,8.0,20.0,56,0.00,,,-99.99,0.000000,,2013-11-28 09:11:00,
2013-11-28 04:43:00,20.0,8.0,-100.00,WNW,300,8.0,21.0,59,0.00,,,0.03,0.000000,,2013-11-28 09:43:00,
2013-11-28 04:53:00,20.0,8.0,-100.00,WNW,300,8.0,21.0,59,0.00,,,0.03,0.000000,,2013-11-28 09:53:00,
2013-11-28 05:03:00,20.0,8.0,-100.00,WNW,300,8.0,21.0,59,0.00,,,0.03,0.000000,,2013-11-28 10:03:00,
2013-11-28 05:12:00,20.0,8.0,-100.00,WNW,300,8.0,21.0,59,0.00,,,0.03,0.000000,,2013-11-28 10:12:00,
2013-11-28 05:43:00,20.0,7.0,-100.00,WNW,289,8.0,14.0,56,0.00,,,0.03,0.000000,,2013-11-28 10:43:00,
2013-11-28 05:53:00,20.0,7.0,-100.00,WNW,289,8.0,14.0,56,0.00,,,0.03,0.000000,,2013-11-28 10:53:00,
2013-11-28 06:02:00,20.0,7.0,-100.00,WNW,289,8.0,14.0,56,0.00,,,0.03,0.000000,,2013-11-28 11:02:00,
2013-11-28 06:12:00,20.0,7.0,-100.00,WNW,289,8.0,14.0,56,0.00,,,0.03,0.000000,,2013-11-28 11:12:00,
2013-11-28 06:42:00,20.0,7.0,-100.00,West,280,9.0,14.0,56,0.00,,,0.02,0.000000,,2013-11-28 11:42:00,
2013-11-28 06:52:00,20.0,7.0,-100.00,West,280,9.0,14.0,56,0.00,,,0.02,0.000000,,2013-11-28 11:52:00,
2013-11-28 07:03:00,20.0,7.0,-100.00,West,280,9.0,14.0,56,0.00,,,0.02,0.000000,,2013-11-28 12:03:00,
2013-11-28 07:12:00,20.0,7.0,-100.00,West,280,9.0,14.0,56,0.00,,,0.02,0.000000,,2013-11-28 12:12:00,
2013-11-28 07:42:00,20.0,8.0,-100.00,West,277,9.0,14.0,60,0.00,,,0.02,0.000000,,2013-11-28 12:42:00,
2013-11-28 07:52:00,20.0,8.0,-100.00,West,277,9.0,14.0,60,0.00,,,0.02,0.000000,,2013-11-28 12:52:00,
2013-11-28 08:02:00,20.0,8.0,-100.00,West,277,9.0,14.0,60,0.00,,,0.02,0.000000,,2013-11-28 13:02:00,
2013-11-28 08:11:00,20.0,8.0,-100.00,West,277,9.0,14.0,60,0.00,,,0.02,0.000000,,2013-11-28 13:11:00,
2013-11-28 08:42:00,20.0,10.0,-100.00,West,274,10.0,18.0,65,0.00,,,0.01,0.000000,,2013-11-28 13:42:00,
2013-11-28 08:52:00,20.0,10.0,-100.00,West,274,10.0,18.0,65,0.00,,,0.01,0.000000,,2013-11-28 13:52:00,
2013-11-28 09:02:00,20.0,10.0,-100.00,West,274,10.0,18.0,65,0.00,,,0.01,0.000000,,2013-11-28 14:02:00,
2013-11-28 09:11:00,20.0,10.0,-100.00,West,274,10.0,18.0,65,0.00,,,0.01,0.000000,,2013-11-28 14:11:00,
2013-11-28 09:42:00,23.0,13.0,-100.00,West,278,12.0,20.0,65,0.00,,,0.01,0.000000,,2013-11-28 14:42:00,
2013-11-28 09:52:00,23.0,13.0,-100.00,West,278,12.0,20.0,65,0.00,,,0.01,0.000000,,2013-11-28 14:52:00,
2013-11-28 10:02:00,23.0,13.0,-100.00,West,278,12.0,20.0,65,0.00,,,0.01,0.000000,,2013-11-28 15:02:00,
2013-11-28 10:12:00,23.0,13.0,-100.00,West,278,12.0,20.0,65,0.00,,,0.01,0.000000,,2013-11-28 15:12:00,
2013-11-28 10:13:00,26.0,12.0,-100.00,West,260,10.0,17.0,54,0.00,,,0.01,0.000000,,2013-11-28 15:13:00,
2013-11-28 10:44:00,26.0,12.0,-100.00,West,260,10.0,17.0,54,0.00,,,0.01,0.000000,,2013-11-28 15:44:00,
2013-11-28 10:54:00,26.0,12.0,-100.00,West,260,10.0,17.0,54,0.00,,,0.01,0.000000,,2013-11-28 15:54:00,
2013-11-28 11:03:00,26.0,12.0,-100.00,West,260,10.0,17.0,54,0.00,,,0.01,0.000000,,2013-11-28 16:03:00,
2013-11-28 11:43:00,27.0,10.0,-100.00,West,270,5.0,16.0,49,0.00,,,0.01,0.000000,,2013-11-28 16:43:00,
2013-11-28 11:54:00,27.0,10.0,-100.00,West,270,5.0,16.0,49,0.00,,,0.01,0.000000,,2013-11-28 16:54:00,
2013-11-28 12:02:00,27.0,10.0,-100.00,West,270,5.0,16.0,49,0.00,,,0.01,0.000000,,2013-11-28 17:02:00,
2013-11-28 12:12:00,27.0,10.0,-100.00,West,270,5.0,16.0,49,0.00,,,0.01,0.000000,,2013-11-28 17:12:00,
2013-11-28 12:42:00,32.0,13.0,-100.00,West,265,7.0,19.0,45,0.00,,,0.01,0.000000,,2013-11-28 17:42:00,
2013-11-28 12:52:00,32.0,13.0,-100.00,West,265,7.0,19.0,45,0.00,,,0.01,0.000000,,2013-11-28 17:52:00,
2013-11-28 13:02:00,32.0,13.0,-100.00,West,265,7.0,19.0,45,0.00,,,0.01,0.000000,,2013-11-28 18:02:00,
2013-11-28 13:12:00,32.0,13.0,-100.00,West,265,7.0,19.0,45,0.00,,,0.01,0.000000,,2013-11-28 18:12:00,
2013-11-28 13:42:00,34.0,14.0,-100.00,WSW,258,6.0,15.0,43,0.01,,,0.02,0.000000,,2013-11-28 18:42:00,
2013-11-28 13:52:00,34.0,14.0,-100.00,WSW,258,6.0,15.0,43,0.01,,,0.02,0.000000,,2013-11-28 18:52:00,
2013-11-28 14:02:00,34.0,14.0,-100.00,WSW,258,6.0,15.0,43,0.01,,,0.02,0.000000,,2013-11-28 19:02:00,
2013-11-28 14:11:00,34.0,14.0,-100.00,WSW,258,6.0,15.0,43,0.01,,,0.02,0.000000,,2013-11-28 19:11:00,
2013-11-28 14:42:00,35.0,14.0,-100.00,WSW,248,5.0,12.0,41,0.00,,,0.02,0.000000,,2013-11-28 19:42:00,
2013-11-28 14:52:00,35.0,14.0,-100.00,WSW,248,5.0,12.0,41,0.00,,,0.02,0.000000,,2013-11-28 19:52:00,
2013-11-28 15:01:00,35.0,14.0,-100.00,WSW,248,5.0,12.0,41,0.00,,,0.02,0.000000,,2013-11-28 20:01:00,
2013-11-28 15:12:00,35.0,14.0,-100.00,WSW,248,5.0,12.0,41,0.00,,,0.02,0.000000,,2013-11-28 20:12:00,
2013-11-28 15:42:00,36.0,13.0,-100.00,WSW,255,4.0,10.0,39,0.00,,,0.02,0.000000,,2013-11-28 20:42:00,
2013-11-28 15:52:00,36.0,13.0,-100.00,WSW,255,4.0,10.0,39,0.00,,,0.02,0.000000,,2013-11-28 20:52:00,
2013-11-28 16:02:00,36.0,13.0,-100.00,WSW,255,4.0,10.0,39,0.00,,,0.02,0.000000,,2013-11-28 21:02:00,
2013-11-28 16:11:00,36.0,13.0,-100.00,WSW,255,4.0,10.0,39,0.00,,,0.02,0.000000,,2013-11-28 21:11:00,
2013-11-28 16:13:00,36.0,13.0,-100.00,SW,214,4.0,8.0,39,0.00,,,0.02,0.000000,,2013-11-28 21:13:00,
2013-11-28 16:43:00,36.0,13.0,-100.00,SW,214,4.0,8.0,39,0.00,,,0.02,0.000000,,2013-11-28 21:43:00,
2013-11-28 16:53:00,36.0,13.0,-100.00,SW,214,4.0,8.0,39,0.00,,,0.02,0.000000,,2013-11-28 21:53:00,
2013-11-28 17:03:00,36.0,13.0,-100.00,SW,214,4.0,8.0,39,0.00,,,0.02,0.000000,,2013-11-28 22:03:00,
2013-11-28 17:42:00,30.0,11.0,-100.00,South,176,3.0,7.0,45,0.00,,,0.02,0.000000,,2013-11-28 22:42:00,
2013-11-28 17:53:00,30.0,11.0,-100.00,South,176,3.0,7.0,45,0.00,,,0.02,0.000000,,2013-11-28 22:53:00,
2013-11-28 18:02:00,30.0,11.0,-100.00,South,176,3.0,7.0,45,0.00,,,0.02,0.000000,,2013-11-28 23:02:00,
2013-11-28 18:12:00,30.0,11.0,-100.00,South,176,3.0,7.0,45,0.00,,,0.02,0.000000,,2013-11-28 23:12:00,
2013-11-28 18:42:00,29.0,14.0,-100.00,South,169,3.0,7.0,54,0.00,,,0.01,0.000000,,2013-11-28 23:42:00,
2013-11-28 18:52:00,29.0,14.0,-100.00,South,169,3.0,7.0,54,0.00,,,0.01,0.000000,,2013-11-28 23:52:00,
2013-11-28 19:02:00,29.0,14.0,-100.00,South,169,3.0,7.0,54,0.00,,,0.01,0.000000,,2013-11-29 00:02:00,
2013-11-28 19:11:00,29.0,14.0,-100.00,South,169,3.0,7.0,54,0.00,,,0.01,0.000000,,2013-11-29 00:11:00,
2013-11-28 19:42:00,29.0,13.0,-100.00,SSE,164,2.0,6.0,50,0.00,,,0.01,0.000000,,2013-11-29 00:42:00,
2013-11-28 19:52:00,29.0,13.0,-100.00,SSE,164,2.0,6.0,50,0.00,,,0.01,0.000000,,2013-11-29 00:52:00,
2013-11-28 20:01:00,29.0,13.0,-100.00,SSE,164,2.0,6.0,50,0.00,,,0.01,0.000000,,2013-11-29 01:01:00,
2013-11-28 20:12:00,29.0,13.0,-100.00,SSE,164,2.0,6.0,50,0.00,,,0.01,0.000000,,2013-11-29 01:12:00,
2013-11-28 20:42:00,29.0,11.0,-100.00,WNW,296,2.0,5.0,47,0.00,,,0.01,0.000000,,2013-11-29 01:42:00,
2013-11-28 20:52:00,29.0,11.0,-100.00,WNW,296,2.0,5.0,47,0.00,,,0.01,0.000000,,2013-11-29 01:52:00,
2013-11-28 21:02:00,29.0,11.0,-100.00,WNW,296,2.0,5.0,47,0.00,,,0.01,0.000000,,2013-11-29 02:02:00,
2013-11-28 21:12:00,29.0,11.0,-100.00,WNW,296,2.0,5.0,47,0.00,,,0.01,0.000000,,2013-11-29 02:12:00,
2013-11-28 21:42:00,29.0,11.0,-100.00,NE,55,1.0,5.0,46,0.00,,,0.01,0.000000,,2013-11-29 02:42:00,
2013-11-28 21:52:00,29.0,11.0,-100.00,NE,55,1.0,5.0,46,0.00,,,0.01,0.000000,,2013-11-29 02:52:00,
2013-11-28 22:02:00,29.0,11.0,-100.00,NE,55,1.0,5.0,46,0.00,,,0.01,0.000000,,2013-11-29 03:02:00,
2013-11-28 22:11:00,29.0,11.0,-100.00,NE,55,1.0,5.0,46,0.00,,,0.01,0.000000,,2013-11-29 03:11:00,
2013-11-28 22:13:00,31.0,12.0,-100.00,WNW,282,2.0,4.0,44,0.00,,,0.01,0.000000,,2013-11-29 03:13:00,
2013-11-28 22:43:00,31.0,12.0,-100.00,WNW,282,2.0,4.0,44,0.00,,,0.01,0.000000,,2013-11-29 03:43:00,
2013-11-28 22:54:00,31.0,12.0,-100.00,WNW,282,2.0,4.0,44,0.00,,,0.01,0.000000,,2013-11-29 03:54:00,
2013-11-28 23:03:00,31.0,12.0,-100.00,WNW,282,2.0,4.0,44,0.00,,,0.01,0.000000,,2013-11-29 04:03:00,
2013-11-28 23:43:00,30.0,11.0,-100.00,NNW,333,2.0,4.0,45,0.00,,,0.01,0.000000,,2013-11-29 04:43:00,
2013-11-28 23:52:00,30.0,11.0,-100.00,NNW,333,2.0,4.0,45,0.00,,,0.01,0.000000,,2013-11-29 04:52:00,